sensor_id;sensor_type;location;lat;lon;timestamp;P1;durP1;ratioP1;P2;durP2;ratioP2
37943;SDS011;23767;42.024;23.086;2023-04-24T00:01:35;6.97;;;4.40;;
37943;SDS011;23767;42.024;23.086;2023-04-24T00:04:01;7.63;;;3.97;;
37943;SDS011;23767;42.024;23.086;2023-04-24T00:06:28;6.18;;;4.13;;
37943;SDS011;23767;42.024;23.086;2023-04-24T00:09:02;6.88;;;4.25;;
37943;SDS011;23767;42.024;23.086;2023-04-24T00:11:28;8.63;;;4.32;;
37943;SDS011;23767;42.024;23.086;2023-04-24T00:13:54;6.43;;;3.92;;
37943;SDS011;23767;42.024;23.086;2023-04-24T00:16:20;6.40;;;4.53;;
37943;SDS011;23767;42.024;23.086;2023-04-24T00:18:46;5.82;;;4.28;;
37943;SDS011;23767;42.024;23.086;2023-04-24T00:21:17;7.38;;;4.15;;
37943;SDS011;23767;42.024;23.086;2023-04-24T00:23:43;6.00;;;4.45;;
37943;SDS011;23767;42.024;23.086;2023-04-24T00:26:09;7.60;;;4.70;;
37943;SDS011;23767;42.024;23.086;2023-04-24T00:28:35;8.13;;;4.50;;
37943;SDS011;23767;42.024;23.086;2023-04-24T00:31:01;7.90;;;4.35;;
37943;SDS011;23767;42.024;23.086;2023-04-24T00:33:28;8.13;;;4.35;;
37943;SDS011;23767;42.024;23.086;2023-04-24T00:35:54;6.70;;;4.40;;
37943;SDS011;23767;42.024;23.086;2023-04-24T00:38:20;6.47;;;4.25;;
37943;SDS011;23767;42.024;23.086;2023-04-24T00:40:47;7.22;;;4.68;;
37943;SDS011;23767;42.024;23.086;2023-04-24T00:43:13;7.85;;;4.07;;
37943;SDS011;23767;42.024;23.086;2023-04-24T00:45:39;7.93;;;4.20;;
37943;SDS011;23767;42.024;23.086;2023-04-24T00:48:05;6.63;;;4.30;;
37943;SDS011;23767;42.024;23.086;2023-04-24T00:50:32;7.72;;;5.10;;
37943;SDS011;23767;42.024;23.086;2023-04-24T00:52:58;6.88;;;4.45;;
37943;SDS011;23767;42.024;23.086;2023-04-24T00:55:25;7.47;;;4.25;;
37943;SDS011;23767;42.024;23.086;2023-04-24T00:57:51;7.15;;;4.32;;
37943;SDS011;23767;42.024;23.086;2023-04-24T01:00:17;10.60;;;5.72;;
37943;SDS011;23767;42.024;23.086;2023-04-24T01:02:44;7.63;;;4.40;;
37943;SDS011;23767;42.024;23.086;2023-04-24T01:05:14;6.85;;;4.28;;
37943;SDS011;23767;42.024;23.086;2023-04-24T01:07:43;8.68;;;4.80;;
37943;SDS011;23767;42.024;23.086;2023-04-24T01:10:10;10.43;;;5.35;;
37943;SDS011;23767;42.024;23.086;2023-04-24T01:12:37;9.27;;;5.35;;
37943;SDS011;23767;42.024;23.086;2023-04-24T01:15:03;9.00;;;5.13;;
37943;SDS011;23767;42.024;23.086;2023-04-24T01:17:29;7.88;;;4.60;;
37943;SDS011;23767;42.024;23.086;2023-04-24T01:19:56;8.48;;;4.97;;
37943;SDS011;23767;42.024;23.086;2023-04-24T01:22:22;8.07;;;5.05;;
37943;SDS011;23767;42.024;23.086;2023-04-24T01:24:48;7.80;;;4.82;;
37943;SDS011;23767;42.024;23.086;2023-04-24T01:27:14;7.30;;;5.35;;
37943;SDS011;23767;42.024;23.086;2023-04-24T01:29:41;7.50;;;5.20;;
37943;SDS011;23767;42.024;23.086;2023-04-24T01:32:07;9.52;;;4.80;;
37943;SDS011;23767;42.024;23.086;2023-04-24T01:34:33;9.73;;;4.78;;
37943;SDS011;23767;42.024;23.086;2023-04-24T01:36:59;9.60;;;6.43;;
37943;SDS011;23767;42.024;23.086;2023-04-24T01:39:26;8.27;;;5.00;;
37943;SDS011;23767;42.024;23.086;2023-04-24T01:41:53;8.73;;;4.82;;
37943;SDS011;23767;42.024;23.086;2023-04-24T01:44:19;6.47;;;4.30;;
37943;SDS011;23767;42.024;23.086;2023-04-24T01:46:45;7.95;;;4.80;;
37943;SDS011;23767;42.024;23.086;2023-04-24T01:49:12;6.72;;;4.68;;
37943;SDS011;23767;42.024;23.086;2023-04-24T01:51:38;8.48;;;4.70;;
37943;SDS011;23767;42.024;23.086;2023-04-24T01:54:04;7.20;;;4.90;;
37943;SDS011;23767;42.024;23.086;2023-04-24T01:56:31;8.68;;;4.97;;
37943;SDS011;23767;42.024;23.086;2023-04-24T01:58:58;7.35;;;4.72;;
37943;SDS011;23767;42.024;23.086;2023-04-24T02:01:25;8.07;;;4.50;;
37943;SDS011;23767;42.024;23.086;2023-04-24T02:03:51;7.47;;;5.28;;
37943;SDS011;23767;42.024;23.086;2023-04-24T02:06:17;6.85;;;4.95;;
37943;SDS011;23767;42.024;23.086;2023-04-24T02:08:43;7.68;;;5.20;;
37943;SDS011;23767;42.024;23.086;2023-04-24T02:11:09;5.85;;;4.60;;
37943;SDS011;23767;42.024;23.086;2023-04-24T02:13:36;9.32;;;5.70;;
37943;SDS011;23767;42.024;23.086;2023-04-24T02:16:02;10.30;;;6.90;;
37943;SDS011;23767;42.024;23.086;2023-04-24T02:18:28;9.50;;;6.60;;
37943;SDS011;23767;42.024;23.086;2023-04-24T02:20:54;8.52;;;5.93;;
37943;SDS011;23767;42.024;23.086;2023-04-24T02:23:20;8.85;;;5.45;;
37943;SDS011;23767;42.024;23.086;2023-04-24T02:25:46;7.35;;;5.68;;
37943;SDS011;23767;42.024;23.086;2023-04-24T02:28:12;7.88;;;5.60;;
37943;SDS011;23767;42.024;23.086;2023-04-24T02:30:38;8.75;;;5.45;;
37943;SDS011;23767;42.024;23.086;2023-04-24T02:33:04;7.15;;;4.70;;
37943;SDS011;23767;42.024;23.086;2023-04-24T02:35:30;9.35;;;5.80;;
37943;SDS011;23767;42.024;23.086;2023-04-24T02:37:56;9.23;;;5.30;;
37943;SDS011;23767;42.024;23.086;2023-04-24T02:40:23;10.82;;;6.45;;
37943;SDS011;23767;42.024;23.086;2023-04-24T02:42:49;9.02;;;5.90;;
37943;SDS011;23767;42.024;23.086;2023-04-24T02:45:15;9.13;;;6.18;;
37943;SDS011;23767;42.024;23.086;2023-04-24T02:47:41;7.68;;;6.00;;
37943;SDS011;23767;42.024;23.086;2023-04-24T02:50:07;7.45;;;5.63;;
37943;SDS011;23767;42.024;23.086;2023-04-24T02:52:34;8.98;;;6.18;;
37943;SDS011;23767;42.024;23.086;2023-04-24T02:55:00;7.53;;;5.30;;
37943;SDS011;23767;42.024;23.086;2023-04-24T02:57:26;8.60;;;5.60;;
37943;SDS011;23767;42.024;23.086;2023-04-24T02:59:52;8.35;;;4.97;;
37943;SDS011;23767;42.024;23.086;2023-04-24T03:02:18;9.32;;;5.13;;
37943;SDS011;23767;42.024;23.086;2023-04-24T03:04:45;8.02;;;5.55;;
37943;SDS011;23767;42.024;23.086;2023-04-24T03:07:13;6.95;;;5.13;;
37943;SDS011;23767;42.024;23.086;2023-04-24T03:09:40;9.55;;;5.13;;
37943;SDS011;23767;42.024;23.086;2023-04-24T03:12:06;7.22;;;5.07;;
37943;SDS011;23767;42.024;23.086;2023-04-24T03:14:32;8.70;;;5.10;;
37943;SDS011;23767;42.024;23.086;2023-04-24T03:16:58;7.32;;;5.20;;
37943;SDS011;23767;42.024;23.086;2023-04-24T03:19:24;7.13;;;4.80;;
37943;SDS011;23767;42.024;23.086;2023-04-24T03:21:50;8.52;;;5.38;;
37943;SDS011;23767;42.024;23.086;2023-04-24T03:24:16;8.43;;;5.32;;
37943;SDS011;23767;42.024;23.086;2023-04-24T03:26:42;7.22;;;5.57;;
37943;SDS011;23767;42.024;23.086;2023-04-24T03:29:08;9.07;;;5.00;;
37943;SDS011;23767;42.024;23.086;2023-04-24T03:31:34;7.45;;;5.97;;
37943;SDS011;23767;42.024;23.086;2023-04-24T03:34:00;8.68;;;5.05;;
37943;SDS011;23767;42.024;23.086;2023-04-24T03:36:26;7.35;;;5.32;;
37943;SDS011;23767;42.024;23.086;2023-04-24T03:38:52;8.35;;;5.30;;
37943;SDS011;23767;42.024;23.086;2023-04-24T03:41:18;9.15;;;5.38;;
37943;SDS011;23767;42.024;23.086;2023-04-24T03:43:44;8.07;;;5.32;;
37943;SDS011;23767;42.024;23.086;2023-04-24T03:46:10;9.52;;;5.93;;
37943;SDS011;23767;42.024;23.086;2023-04-24T03:48:36;9.27;;;5.63;;
37943;SDS011;23767;42.024;23.086;2023-04-24T03:51:02;8.93;;;5.97;;
37943;SDS011;23767;42.024;23.086;2023-04-24T03:53:29;10.73;;;5.85;;
37943;SDS011;23767;42.024;23.086;2023-04-24T03:55:55;9.27;;;6.05;;
37943;SDS011;23767;42.024;23.086;2023-04-24T03:58:21;9.57;;;6.00;;
37943;SDS011;23767;42.024;23.086;2023-04-24T04:00:47;9.07;;;6.22;;
37943;SDS011;23767;42.024;23.086;2023-04-24T04:03:13;8.57;;;6.40;;
37943;SDS011;23767;42.024;23.086;2023-04-24T04:05:39;11.00;;;6.32;;
37943;SDS011;23767;42.024;23.086;2023-04-24T04:08:05;7.90;;;5.85;;
37943;SDS011;23767;42.024;23.086;2023-04-24T04:10:31;7.80;;;5.50;;
37943;SDS011;23767;42.024;23.086;2023-04-24T04:12:57;9.38;;;6.00;;
37943;SDS011;23767;42.024;23.086;2023-04-24T04:15:23;8.07;;;6.15;;
37943;SDS011;23767;42.024;23.086;2023-04-24T04:17:49;10.95;;;6.25;;
37943;SDS011;23767;42.024;23.086;2023-04-24T04:20:15;10.35;;;6.28;;
37943;SDS011;23767;42.024;23.086;2023-04-24T04:22:41;10.75;;;6.20;;
37943;SDS011;23767;42.024;23.086;2023-04-24T04:25:07;8.18;;;6.53;;
37943;SDS011;23767;42.024;23.086;2023-04-24T04:27:34;8.23;;;6.40;;
37943;SDS011;23767;42.024;23.086;2023-04-24T04:30:00;7.28;;;5.88;;
37943;SDS011;23767;42.024;23.086;2023-04-24T04:32:29;10.68;;;6.70;;
37943;SDS011;23767;42.024;23.086;2023-04-24T04:34:56;8.18;;;5.40;;
37943;SDS011;23767;42.024;23.086;2023-04-24T04:37:22;8.20;;;5.40;;
37943;SDS011;23767;42.024;23.086;2023-04-24T04:39:48;8.07;;;5.65;;
37943;SDS011;23767;42.024;23.086;2023-04-24T04:42:14;10.00;;;6.40;;
37943;SDS011;23767;42.024;23.086;2023-04-24T04:44:40;8.10;;;5.82;;
37943;SDS011;23767;42.024;23.086;2023-04-24T04:47:06;10.32;;;6.20;;
37943;SDS011;23767;42.024;23.086;2023-04-24T04:49:33;12.75;;;7.75;;
37943;SDS011;23767;42.024;23.086;2023-04-24T04:52:00;16.45;;;7.43;;
37943;SDS011;23767;42.024;23.086;2023-04-24T04:54:25;13.02;;;7.78;;
37943;SDS011;23767;42.024;23.086;2023-04-24T04:56:52;14.70;;;7.78;;
37943;SDS011;23767;42.024;23.086;2023-04-24T04:59:18;14.68;;;8.35;;
37943;SDS011;23767;42.024;23.086;2023-04-24T05:01:44;14.07;;;8.52;;
37943;SDS011;23767;42.024;23.086;2023-04-24T05:04:10;15.77;;;9.70;;
37943;SDS011;23767;42.024;23.086;2023-04-24T05:06:36;15.45;;;8.73;;
37943;SDS011;23767;42.024;23.086;2023-04-24T05:09:02;19.52;;;9.25;;
37943;SDS011;23767;42.024;23.086;2023-04-24T05:11:28;18.45;;;9.48;;
37943;SDS011;23767;42.024;23.086;2023-04-24T05:13:55;13.80;;;8.15;;
37943;SDS011;23767;42.024;23.086;2023-04-24T05:16:21;17.05;;;8.35;;
37943;SDS011;23767;42.024;23.086;2023-04-24T05:18:47;11.00;;;7.47;;
37943;SDS011;23767;42.024;23.086;2023-04-24T05:21:13;14.48;;;7.55;;
37943;SDS011;23767;42.024;23.086;2023-04-24T05:23:39;14.07;;;7.78;;
37943;SDS011;23767;42.024;23.086;2023-04-24T05:26:05;9.60;;;6.25;;
37943;SDS011;23767;42.024;23.086;2023-04-24T05:28:31;13.95;;;6.65;;
37943;SDS011;23767;42.024;23.086;2023-04-24T05:30:57;12.73;;;5.70;;
37943;SDS011;23767;42.024;23.086;2023-04-24T05:33:24;12.13;;;5.47;;
37943;SDS011;23767;42.024;23.086;2023-04-24T05:35:50;10.15;;;4.68;;
37943;SDS011;23767;42.024;23.086;2023-04-24T05:38:16;9.40;;;4.57;;
37943;SDS011;23767;42.024;23.086;2023-04-24T05:40:44;8.85;;;5.30;;
37943;SDS011;23767;42.024;23.086;2023-04-24T05:43:10;9.02;;;5.30;;
37943;SDS011;23767;42.024;23.086;2023-04-24T05:45:36;10.13;;;4.80;;
37943;SDS011;23767;42.024;23.086;2023-04-24T05:48:03;10.88;;;4.50;;
37943;SDS011;23767;42.024;23.086;2023-04-24T05:50:29;12.75;;;4.57;;
37943;SDS011;23767;42.024;23.086;2023-04-24T05:52:55;11.90;;;4.80;;
37943;SDS011;23767;42.024;23.086;2023-04-24T05:55:26;10.57;;;4.50;;
37943;SDS011;23767;42.024;23.086;2023-04-24T05:57:52;10.98;;;5.22;;
37943;SDS011;23767;42.024;23.086;2023-04-24T06:00:18;11.50;;;4.93;;
37943;SDS011;23767;42.024;23.086;2023-04-24T06:02:45;11.63;;;5.05;;
37943;SDS011;23767;42.024;23.086;2023-04-24T06:05:12;13.60;;;5.10;;
37943;SDS011;23767;42.024;23.086;2023-04-24T06:07:38;7.40;;;4.82;;
37943;SDS011;23767;42.024;23.086;2023-04-24T06:10:04;10.60;;;5.18;;
37943;SDS011;23767;42.024;23.086;2023-04-24T06:12:30;12.15;;;5.40;;
37943;SDS011;23767;42.024;23.086;2023-04-24T06:14:56;7.63;;;4.75;;
37943;SDS011;23767;42.024;23.086;2023-04-24T06:17:22;10.50;;;5.32;;
37943;SDS011;23767;42.024;23.086;2023-04-24T06:19:48;9.18;;;5.30;;
37943;SDS011;23767;42.024;23.086;2023-04-24T06:22:14;9.85;;;4.70;;
37943;SDS011;23767;42.024;23.086;2023-04-24T06:24:40;8.23;;;4.40;;
37943;SDS011;23767;42.024;23.086;2023-04-24T06:27:06;9.68;;;4.80;;
37943;SDS011;23767;42.024;23.086;2023-04-24T06:29:33;6.43;;;3.85;;
37943;SDS011;23767;42.024;23.086;2023-04-24T06:31:59;8.80;;;4.22;;
37943;SDS011;23767;42.024;23.086;2023-04-24T06:34:25;9.35;;;4.88;;
37943;SDS011;23767;42.024;23.086;2023-04-24T06:36:51;7.50;;;4.47;;
37943;SDS011;23767;42.024;23.086;2023-04-24T06:39:17;6.70;;;4.20;;
37943;SDS011;23767;42.024;23.086;2023-04-24T06:41:43;7.18;;;3.92;;
37943;SDS011;23767;42.024;23.086;2023-04-24T06:44:09;6.65;;;3.88;;
37943;SDS011;23767;42.024;23.086;2023-04-24T06:46:35;7.28;;;4.20;;
37943;SDS011;23767;42.024;23.086;2023-04-24T06:49:04;9.48;;;3.88;;
37943;SDS011;23767;42.024;23.086;2023-04-24T06:54:24;7.22;;;4.00;;
37943;SDS011;23767;42.024;23.086;2023-04-24T06:56:50;9.00;;;4.15;;
37943;SDS011;23767;42.024;23.086;2023-04-24T06:59:17;6.78;;;3.95;;
37943;SDS011;23767;42.024;23.086;2023-04-24T07:01:43;8.23;;;3.90;;
37943;SDS011;23767;42.024;23.086;2023-04-24T07:04:10;10.05;;;3.90;;
37943;SDS011;23767;42.024;23.086;2023-04-24T07:06:37;15.45;;;5.13;;
37943;SDS011;23767;42.024;23.086;2023-04-24T07:09:04;7.47;;;3.90;;
37943;SDS011;23767;42.024;23.086;2023-04-24T07:11:30;7.75;;;4.07;;
37943;SDS011;23767;42.024;23.086;2023-04-24T07:13:56;6.85;;;3.90;;
37943;SDS011;23767;42.024;23.086;2023-04-24T07:16:22;9.25;;;4.13;;
37943;SDS011;23767;42.024;23.086;2023-04-24T07:18:48;5.85;;;4.10;;
37943;SDS011;23767;42.024;23.086;2023-04-24T07:21:14;8.35;;;3.70;;
37943;SDS011;23767;42.024;23.086;2023-04-24T07:23:40;6.55;;;3.72;;
37943;SDS011;23767;42.024;23.086;2023-04-24T07:26:06;7.38;;;3.90;;
37943;SDS011;23767;42.024;23.086;2023-04-24T07:28:32;8.27;;;3.90;;
37943;SDS011;23767;42.024;23.086;2023-04-24T07:30:58;5.90;;;3.80;;
37943;SDS011;23767;42.024;23.086;2023-04-24T07:33:25;8.02;;;3.60;;
37943;SDS011;23767;42.024;23.086;2023-04-24T07:35:51;5.18;;;3.50;;
37943;SDS011;23767;42.024;23.086;2023-04-24T07:38:18;8.07;;;3.92;;
37943;SDS011;23767;42.024;23.086;2023-04-24T07:40:47;7.32;;;3.60;;
37943;SDS011;23767;42.024;23.086;2023-04-24T07:43:13;8.68;;;3.80;;
37943;SDS011;23767;42.024;23.086;2023-04-24T07:45:39;7.97;;;3.95;;
37943;SDS011;23767;42.024;23.086;2023-04-24T07:48:06;5.80;;;3.28;;
37943;SDS011;23767;42.024;23.086;2023-04-24T07:50:33;4.97;;;3.35;;
37943;SDS011;23767;42.024;23.086;2023-04-24T07:53:01;8.50;;;3.53;;
37943;SDS011;23767;42.024;23.086;2023-04-24T07:55:27;5.63;;;3.70;;
37943;SDS011;23767;42.024;23.086;2023-04-24T07:57:53;6.60;;;3.63;;
37943;SDS011;23767;42.024;23.086;2023-04-24T08:00:19;5.90;;;3.60;;
37943;SDS011;23767;42.024;23.086;2023-04-24T08:02:45;7.30;;;3.75;;
37943;SDS011;23767;42.024;23.086;2023-04-24T08:05:11;7.30;;;3.60;;
37943;SDS011;23767;42.024;23.086;2023-04-24T08:07:37;8.55;;;3.60;;
37943;SDS011;23767;42.024;23.086;2023-04-24T08:10:04;8.20;;;4.05;;
37943;SDS011;23767;42.024;23.086;2023-04-24T08:12:30;7.03;;;3.60;;
37943;SDS011;23767;42.024;23.086;2023-04-24T08:14:56;7.03;;;3.58;;
37943;SDS011;23767;42.024;23.086;2023-04-24T08:17:23;5.97;;;3.33;;
37943;SDS011;23767;42.024;23.086;2023-04-24T08:19:50;8.02;;;3.17;;
37943;SDS011;23767;42.024;23.086;2023-04-24T08:22:18;5.45;;;3.58;;
37943;SDS011;23767;42.024;23.086;2023-04-24T08:24:44;7.15;;;3.45;;
37943;SDS011;23767;42.024;23.086;2023-04-24T08:27:10;5.10;;;3.28;;
37943;SDS011;23767;42.024;23.086;2023-04-24T08:29:36;7.82;;;3.08;;
37943;SDS011;23767;42.024;23.086;2023-04-24T08:32:02;7.40;;;3.40;;
37943;SDS011;23767;42.024;23.086;2023-04-24T08:34:28;7.03;;;3.50;;
37943;SDS011;23767;42.024;23.086;2023-04-24T08:36:54;7.88;;;3.60;;
37943;SDS011;23767;42.024;23.086;2023-04-24T08:39:20;7.75;;;3.70;;
37943;SDS011;23767;42.024;23.086;2023-04-24T08:41:46;8.38;;;3.88;;
37943;SDS011;23767;42.024;23.086;2023-04-24T08:44:14;7.47;;;3.65;;
37943;SDS011;23767;42.024;23.086;2023-04-24T08:46:41;6.13;;;3.10;;
37943;SDS011;23767;42.024;23.086;2023-04-24T08:49:08;6.63;;;3.38;;
37943;SDS011;23767;42.024;23.086;2023-04-24T08:51:34;6.93;;;3.25;;
37943;SDS011;23767;42.024;23.086;2023-04-24T08:54:02;5.97;;;3.55;;
37943;SDS011;23767;42.024;23.086;2023-04-24T08:56:28;6.03;;;3.67;;
37943;SDS011;23767;42.024;23.086;2023-04-24T08:58:56;7.60;;;3.35;;
37943;SDS011;23767;42.024;23.086;2023-04-24T09:01:22;5.63;;;3.40;;
37943;SDS011;23767;42.024;23.086;2023-04-24T09:03:49;4.57;;;2.80;;
37943;SDS011;23767;42.024;23.086;2023-04-24T09:06:16;6.20;;;2.90;;
37943;SDS011;23767;42.024;23.086;2023-04-24T09:08:43;14.23;;;3.63;;
37943;SDS011;23767;42.024;23.086;2023-04-24T09:11:09;6.70;;;3.15;;
37943;SDS011;23767;42.024;23.086;2023-04-24T09:13:36;8.13;;;3.55;;
37943;SDS011;23767;42.024;23.086;2023-04-24T09:16:02;6.97;;;3.15;;
37943;SDS011;23767;42.024;23.086;2023-04-24T09:18:28;5.72;;;3.33;;
37943;SDS011;23767;42.024;23.086;2023-04-24T09:23:27;6.63;;;3.05;;
37943;SDS011;23767;42.024;23.086;2023-04-24T09:25:54;6.50;;;3.15;;
37943;SDS011;23767;42.024;23.086;2023-04-24T09:28:24;6.00;;;3.40;;
37943;SDS011;23767;42.024;23.086;2023-04-24T09:33:35;5.80;;;3.38;;
37943;SDS011;23767;42.024;23.086;2023-04-24T09:36:01;8.30;;;3.40;;
37943;SDS011;23767;42.024;23.086;2023-04-24T09:38:32;7.97;;;3.20;;
37943;SDS011;23767;42.024;23.086;2023-04-24T09:41:05;5.68;;;2.70;;
37943;SDS011;23767;42.024;23.086;2023-04-24T09:43:31;6.82;;;2.78;;
37943;SDS011;23767;42.024;23.086;2023-04-24T09:45:58;6.90;;;2.88;;
37943;SDS011;23767;42.024;23.086;2023-04-24T09:48:34;8.50;;;3.25;;
37943;SDS011;23767;42.024;23.086;2023-04-24T09:51:01;7.45;;;3.20;;
37943;SDS011;23767;42.024;23.086;2023-04-24T09:53:28;8.93;;;3.33;;
37943;SDS011;23767;42.024;23.086;2023-04-24T09:55:54;6.43;;;3.08;;
37943;SDS011;23767;42.024;23.086;2023-04-24T09:58:26;7.07;;;3.42;;
37943;SDS011;23767;42.024;23.086;2023-04-24T10:00:56;7.63;;;3.25;;
37943;SDS011;23767;42.024;23.086;2023-04-24T10:03:25;5.45;;;2.95;;
37943;SDS011;23767;42.024;23.086;2023-04-24T10:05:52;5.07;;;3.10;;
37943;SDS011;23767;42.024;23.086;2023-04-24T10:08:18;7.28;;;3.30;;
37943;SDS011;23767;42.024;23.086;2023-04-24T10:10:45;5.22;;;2.90;;
37943;SDS011;23767;42.024;23.086;2023-04-24T10:13:12;8.07;;;3.08;;
37943;SDS011;23767;42.024;23.086;2023-04-24T10:15:39;5.97;;;2.70;;
37943;SDS011;23767;42.024;23.086;2023-04-24T10:18:06;6.85;;;3.17;;
37943;SDS011;23767;42.024;23.086;2023-04-24T10:20:32;8.30;;;2.92;;
37943;SDS011;23767;42.024;23.086;2023-04-24T10:22:59;7.03;;;3.08;;
37943;SDS011;23767;42.024;23.086;2023-04-24T10:25:26;8.75;;;3.20;;
37943;SDS011;23767;42.024;23.086;2023-04-24T10:27:53;6.97;;;3.05;;
37943;SDS011;23767;42.024;23.086;2023-04-24T10:30:22;6.00;;;2.70;;
37943;SDS011;23767;42.024;23.086;2023-04-24T10:32:48;4.88;;;2.85;;
37943;SDS011;23767;42.024;23.086;2023-04-24T10:35:15;6.68;;;2.63;;
37943;SDS011;23767;42.024;23.086;2023-04-24T10:37:51;8.25;;;2.90;;
37943;SDS011;23767;42.024;23.086;2023-04-24T10:40:25;7.10;;;2.88;;
37943;SDS011;23767;42.024;23.086;2023-04-24T10:42:51;7.60;;;2.80;;
37943;SDS011;23767;42.024;23.086;2023-04-24T10:45:21;10.90;;;3.08;;
37943;SDS011;23767;42.024;23.086;2023-04-24T10:47:56;5.40;;;2.70;;
37943;SDS011;23767;42.024;23.086;2023-04-24T10:50:23;7.90;;;2.50;;
37943;SDS011;23767;42.024;23.086;2023-04-24T10:52:49;7.40;;;2.95;;
37943;SDS011;23767;42.024;23.086;2023-04-24T10:55:36;9.23;;;3.05;;
37943;SDS011;23767;42.024;23.086;2023-04-24T10:58:03;8.27;;;3.10;;
37943;SDS011;23767;42.024;23.086;2023-04-24T11:00:30;8.95;;;2.95;;
37943;SDS011;23767;42.024;23.086;2023-04-24T11:02:56;7.78;;;2.80;;
37943;SDS011;23767;42.024;23.086;2023-04-24T11:05:24;6.80;;;2.78;;
37943;SDS011;23767;42.024;23.086;2023-04-24T11:08:15;8.32;;;2.92;;
37943;SDS011;23767;42.024;23.086;2023-04-24T11:10:45;8.13;;;2.72;;
37943;SDS011;23767;42.024;23.086;2023-04-24T11:13:20;6.40;;;2.80;;
37943;SDS011;23767;42.024;23.086;2023-04-24T11:16:06;5.95;;;2.63;;
37943;SDS011;23767;42.024;23.086;2023-04-24T11:18:39;6.03;;;2.63;;
37943;SDS011;23767;42.024;23.086;2023-04-24T11:21:11;7.40;;;2.60;;
37943;SDS011;23767;42.024;23.086;2023-04-24T11:23:37;6.05;;;2.70;;
37943;SDS011;23767;42.024;23.086;2023-04-24T11:26:10;5.75;;;2.65;;
37943;SDS011;23767;42.024;23.086;2023-04-24T11:28:36;5.80;;;2.83;;
37943;SDS011;23767;42.024;23.086;2023-04-24T11:33:47;6.13;;;2.70;;
37943;SDS011;23767;42.024;23.086;2023-04-24T11:36:13;5.43;;;2.60;;
37943;SDS011;23767;42.024;23.086;2023-04-24T11:38:39;6.43;;;2.78;;
37943;SDS011;23767;42.024;23.086;2023-04-24T11:41:05;4.38;;;2.63;;
37943;SDS011;23767;42.024;23.086;2023-04-24T11:43:32;4.63;;;2.60;;
37943;SDS011;23767;42.024;23.086;2023-04-24T11:45:59;5.60;;;2.67;;
37943;SDS011;23767;42.024;23.086;2023-04-24T11:48:25;10.05;;;2.78;;
37943;SDS011;23767;42.024;23.086;2023-04-24T11:50:51;5.72;;;3.03;;
37943;SDS011;23767;42.024;23.086;2023-04-24T11:53:20;6.68;;;2.47;;
37943;SDS011;23767;42.024;23.086;2023-04-24T11:55:46;5.20;;;2.35;;
37943;SDS011;23767;42.024;23.086;2023-04-24T11:58:12;4.18;;;2.40;;
37943;SDS011;23767;42.024;23.086;2023-04-24T12:00:38;5.68;;;2.40;;
37943;SDS011;23767;42.024;23.086;2023-04-24T12:03:08;5.88;;;2.55;;
37943;SDS011;23767;42.024;23.086;2023-04-24T12:05:34;6.10;;;2.70;;
37943;SDS011;23767;42.024;23.086;2023-04-24T12:08:01;4.80;;;2.60;;
37943;SDS011;23767;42.024;23.086;2023-04-24T12:10:27;6.55;;;2.95;;
37943;SDS011;23767;42.024;23.086;2023-04-24T12:12:55;4.63;;;2.50;;
37943;SDS011;23767;42.024;23.086;2023-04-24T12:15:21;7.43;;;2.38;;
37943;SDS011;23767;42.024;23.086;2023-04-24T12:17:48;6.07;;;2.70;;
37943;SDS011;23767;42.024;23.086;2023-04-24T12:20:16;7.70;;;2.78;;
37943;SDS011;23767;42.024;23.086;2023-04-24T12:22:43;4.95;;;2.45;;
37943;SDS011;23767;42.024;23.086;2023-04-24T12:25:12;6.18;;;2.67;;
37943;SDS011;23767;42.024;23.086;2023-04-24T12:27:38;10.25;;;3.08;;
37943;SDS011;23767;42.024;23.086;2023-04-24T12:30:05;8.35;;;2.70;;
37943;SDS011;23767;42.024;23.086;2023-04-24T12:32:31;5.90;;;2.55;;
37943;SDS011;23767;42.024;23.086;2023-04-24T12:34:58;5.55;;;2.47;;
37943;SDS011;23767;42.024;23.086;2023-04-24T12:37:24;5.50;;;2.58;;
37943;SDS011;23767;42.024;23.086;2023-04-24T12:42:30;7.70;;;2.80;;
37943;SDS011;23767;42.024;23.086;2023-04-24T12:44:57;8.18;;;2.70;;
37943;SDS011;23767;42.024;23.086;2023-04-24T12:47:24;4.30;;;2.05;;
37943;SDS011;23767;42.024;23.086;2023-04-24T12:49:51;5.85;;;2.50;;
37943;SDS011;23767;42.024;23.086;2023-04-24T12:52:20;5.63;;;2.65;;
37943;SDS011;23767;42.024;23.086;2023-04-24T12:54:46;7.20;;;2.88;;
37943;SDS011;23767;42.024;23.086;2023-04-24T12:57:12;7.70;;;2.78;;
37943;SDS011;23767;42.024;23.086;2023-04-24T12:59:38;5.93;;;2.50;;
37943;SDS011;23767;42.024;23.086;2023-04-24T13:02:05;6.88;;;2.67;;
37943;SDS011;23767;42.024;23.086;2023-04-24T13:04:32;7.15;;;2.67;;
37943;SDS011;23767;42.024;23.086;2023-04-24T13:06:58;7.13;;;2.97;;
37943;SDS011;23767;42.024;23.086;2023-04-24T13:09:24;7.53;;;2.80;;
37943;SDS011;23767;42.024;23.086;2023-04-24T13:11:50;7.72;;;2.70;;
37943;SDS011;23767;42.024;23.086;2023-04-24T13:14:16;7.55;;;2.47;;
37943;SDS011;23767;42.024;23.086;2023-04-24T13:16:42;5.80;;;2.60;;
37943;SDS011;23767;42.024;23.086;2023-04-24T13:19:08;7.22;;;2.70;;
37943;SDS011;23767;42.024;23.086;2023-04-24T13:21:34;7.35;;;2.85;;
37943;SDS011;23767;42.024;23.086;2023-04-24T13:24:00;9.00;;;3.20;;
37943;SDS011;23767;42.024;23.086;2023-04-24T13:26:26;7.53;;;3.10;;
37943;SDS011;23767;42.024;23.086;2023-04-24T13:28:52;9.48;;;3.00;;
37943;SDS011;23767;42.024;23.086;2023-04-24T13:31:18;7.13;;;2.90;;
37943;SDS011;23767;42.024;23.086;2023-04-24T13:33:44;9.82;;;3.22;;
37943;SDS011;23767;42.024;23.086;2023-04-24T13:36:10;6.95;;;2.67;;
37943;SDS011;23767;42.024;23.086;2023-04-24T13:38:36;8.13;;;3.25;;
37943;SDS011;23767;42.024;23.086;2023-04-24T13:41:02;14.88;;;3.13;;
37943;SDS011;23767;42.024;23.086;2023-04-24T13:43:28;9.18;;;2.80;;
37943;SDS011;23767;42.024;23.086;2023-04-24T13:45:54;6.20;;;2.40;;
37943;SDS011;23767;42.024;23.086;2023-04-24T13:48:20;10.45;;;3.00;;
37943;SDS011;23767;42.024;23.086;2023-04-24T13:50:47;6.88;;;2.78;;
37943;SDS011;23767;42.024;23.086;2023-04-24T13:53:14;5.80;;;2.78;;
37943;SDS011;23767;42.024;23.086;2023-04-24T13:55:40;8.60;;;2.70;;
37943;SDS011;23767;42.024;23.086;2023-04-24T13:58:06;10.77;;;3.00;;
37943;SDS011;23767;42.024;23.086;2023-04-24T14:00:32;10.82;;;2.85;;
37943;SDS011;23767;42.024;23.086;2023-04-24T14:02:59;13.68;;;3.20;;
37943;SDS011;23767;42.024;23.086;2023-04-24T14:05:25;6.72;;;2.72;;
37943;SDS011;23767;42.024;23.086;2023-04-24T14:07:51;10.55;;;3.13;;
37943;SDS011;23767;42.024;23.086;2023-04-24T14:10:17;7.85;;;3.05;;
37943;SDS011;23767;42.024;23.086;2023-04-24T14:12:43;7.72;;;3.10;;
37943;SDS011;23767;42.024;23.086;2023-04-24T14:15:10;8.77;;;3.00;;
37943;SDS011;23767;42.024;23.086;2023-04-24T14:17:38;7.32;;;3.05;;
37943;SDS011;23767;42.024;23.086;2023-04-24T14:20:04;6.18;;;2.88;;
37943;SDS011;23767;42.024;23.086;2023-04-24T14:22:30;8.52;;;3.17;;
37943;SDS011;23767;42.024;23.086;2023-04-24T14:24:56;9.23;;;3.25;;
37943;SDS011;23767;42.024;23.086;2023-04-24T14:27:22;6.18;;;3.00;;
37943;SDS011;23767;42.024;23.086;2023-04-24T14:29:48;10.02;;;2.95;;
37943;SDS011;23767;42.024;23.086;2023-04-24T14:32:14;7.28;;;2.83;;
37943;SDS011;23767;42.024;23.086;2023-04-24T14:34:41;7.18;;;3.00;;
37943;SDS011;23767;42.024;23.086;2023-04-24T14:37:07;6.68;;;2.80;;
37943;SDS011;23767;42.024;23.086;2023-04-24T14:39:33;6.75;;;2.85;;
37943;SDS011;23767;42.024;23.086;2023-04-24T14:42:00;6.72;;;3.05;;
37943;SDS011;23767;42.024;23.086;2023-04-24T14:44:26;5.72;;;2.97;;